createdAt,value
2017-11-18T00:01:55.966Z,87.10
2017-11-18T00:04:22.655Z,96.23
2017-11-18T00:06:49.402Z,85.47
2017-11-18T00:09:16.073Z,84.50
2017-11-18T00:11:43.493Z,87.03
2017-11-18T00:14:10.200Z,72.78
2017-11-18T00:16:36.934Z,89.72
2017-11-18T00:19:03.649Z,90.60
2017-11-18T00:21:31.093Z,144.75
2017-11-18T00:23:57.793Z,95.60
2017-11-18T00:26:24.482Z,137.82
2017-11-18T00:28:51.182Z,86.53
2017-11-18T00:31:17.874Z,104.53
2017-11-18T00:33:44.545Z,104.77
2017-11-18T00:36:11.263Z,94.37
2017-11-18T00:38:37.921Z,141.70
2017-11-18T00:41:05.689Z,102.28
2017-11-18T00:43:33.153Z,90.70
2017-11-18T00:46:00.565Z,78.75
2017-11-18T00:48:27.253Z,79.70
2017-11-18T00:50:54.701Z,79.00
2017-11-18T00:53:21.333Z,73.07
2017-11-18T00:55:48.115Z,90.75
2017-11-18T00:58:14.839Z,80.65
2017-11-18T01:00:41.526Z,116.23
2017-11-18T01:03:08.202Z,89.23
2017-11-18T01:05:34.921Z,95.87
2017-11-18T01:08:01.852Z,121.10
2017-11-18T01:10:28.544Z,117.67
2017-11-18T01:12:55.265Z,122.07
2017-11-18T01:15:21.947Z,131.47
2017-11-18T01:17:49.376Z,110.32
2017-11-18T01:20:16.083Z,107.40
2017-11-18T01:22:42.788Z,98.53
2017-11-18T01:25:10.232Z,107.93
2017-11-18T01:27:36.885Z,100.77
2017-11-18T01:30:03.597Z,97.60
2017-11-18T01:32:30.385Z,94.90
2017-11-18T01:34:57.833Z,98.15
2017-11-18T01:37:24.537Z,99.07
2017-11-18T01:39:51.225Z,105.17
2017-11-18T01:42:17.956Z,96.18
2017-11-18T01:44:44.687Z,91.50
2017-11-18T01:47:11.339Z,82.43
2017-11-18T01:49:38.061Z,95.77
2017-11-18T01:52:04.841Z,92.67
2017-11-18T01:54:31.601Z,87.40
2017-11-18T01:56:58.317Z,90.78
2017-11-18T01:59:25.076Z,86.82
2017-11-18T02:01:51.822Z,89.57
2017-11-18T02:04:18.638Z,94.10
2017-11-18T02:06:46.121Z,97.60
2017-11-18T02:09:12.818Z,104.87
2017-11-18T02:11:39.504Z,108.93
2017-11-18T02:14:06.229Z,106.73
2017-11-18T02:16:32.933Z,113.87
2017-11-18T02:18:59.630Z,132.23
2017-11-18T02:21:26.408Z,124.20
2017-11-18T02:23:53.936Z,115.53
2017-11-18T02:26:20.721Z,119.67
2017-11-18T02:28:48.551Z,117.70
2017-11-18T02:31:15.351Z,107.03
2017-11-18T02:33:42.116Z,103.37
2017-11-18T02:36:08.847Z,95.23
2017-11-18T02:38:35.651Z,95.77
2017-11-18T02:41:03.142Z,98.75
2017-11-18T02:43:29.876Z,115.10
2017-11-18T02:45:57.404Z,100.20
2017-11-18T02:48:24.156Z,106.43
2017-11-18T02:50:50.945Z,111.55
2017-11-18T02:53:17.691Z,118.78
2017-11-18T02:55:44.520Z,101.95
2017-11-18T02:58:11.289Z,95.95
2017-11-18T03:00:38.081Z,112.20
2017-11-18T03:03:05.509Z,117.37
2017-11-18T03:05:32.206Z,100.53
2017-11-18T03:07:58.878Z,110.83
2017-11-18T03:10:25.616Z,110.63
2017-11-18T03:12:52.365Z,114.70
2017-11-18T03:15:19.095Z,126.67
2017-11-18T03:17:45.809Z,112.88
2017-11-18T03:20:12.515Z,215.43
2017-11-18T03:22:39.186Z,109.00
2017-11-18T03:25:05.958Z,119.60
2017-11-18T03:27:33.388Z,120.43
2017-11-18T03:30:00.103Z,117.50
2017-11-18T03:32:26.800Z,146.57
2017-11-18T03:34:53.496Z,151.07
2017-11-18T03:37:20.245Z,138.12
2017-11-18T03:39:46.956Z,119.37
2017-11-18T03:42:13.652Z,114.67
2017-11-18T03:44:40.377Z,140.25
2017-11-18T03:47:07.090Z,167.00
2017-11-18T03:49:33.781Z,121.75
2017-11-18T03:52:00.531Z,116.82
2017-11-18T03:54:27.243Z,140.23
2017-11-18T03:56:53.962Z,139.25
2017-11-18T03:59:20.710Z,104.10
2017-11-18T04:01:47.378Z,126.28
2017-11-18T04:04:14.092Z,114.17
2017-11-18T04:06:40.854Z,118.07
2017-11-18T04:09:07.561Z,89.30
2017-11-18T04:11:35.017Z,94.40
2017-11-18T04:14:02.470Z,92.82
2017-11-18T04:16:29.881Z,108.32
2017-11-18T04:18:56.562Z,100.60
2017-11-18T04:21:23.297Z,102.35
2017-11-18T04:23:50.045Z,124.50
2017-11-18T04:26:17.264Z,106.13
2017-11-18T04:28:44.002Z,95.05
2017-11-18T04:31:10.727Z,100.17
2017-11-18T04:33:37.457Z,130.75
2017-11-18T04:36:04.952Z,95.50
2017-11-18T04:38:31.689Z,94.13
2017-11-18T04:40:58.434Z,98.50
2017-11-18T04:43:25.155Z,98.03
2017-11-18T04:45:52.621Z,100.53
2017-11-18T04:48:19.349Z,102.30
2017-11-18T04:50:46.838Z,114.37
2017-11-18T04:53:13.549Z,106.30
2017-11-18T04:55:41.008Z,100.78
2017-11-18T04:58:07.701Z,82.60
2017-11-18T05:00:34.457Z,93.78
2017-11-18T05:03:01.128Z,87.50
2017-11-18T05:05:27.853Z,97.73
2017-11-18T05:07:54.552Z,79.53
2017-11-18T05:10:21.269Z,98.00
2017-11-18T05:12:47.974Z,82.32
2017-11-18T05:15:14.694Z,103.60
2017-11-18T05:17:41.404Z,93.97
2017-11-18T05:20:09.707Z,94.77
2017-11-18T05:22:36.472Z,93.90
2017-11-18T05:25:03.254Z,86.53
2017-11-18T05:27:29.963Z,96.80
2017-11-18T05:29:56.747Z,89.00
2017-11-18T05:32:24.453Z,77.07
2017-11-18T05:34:51.174Z,94.18
2017-11-18T05:37:17.935Z,92.87
2017-11-18T05:39:45.383Z,84.32
2017-11-18T05:42:12.833Z,115.10
2017-11-18T05:44:40.280Z,91.20
2017-11-18T05:47:07.094Z,87.62
2017-11-18T05:49:33.782Z,78.22
2017-11-18T05:52:00.560Z,83.03
2017-11-18T05:54:27.977Z,86.47
2017-11-18T05:56:54.698Z,88.25
2017-11-18T05:59:21.417Z,80.47
2017-11-18T06:01:48.211Z,82.80
2017-11-18T06:04:14.898Z,72.30
2017-11-18T06:06:42.345Z,90.33
2017-11-18T06:09:09.842Z,87.85
2017-11-18T06:11:36.648Z,75.03
2017-11-18T06:14:04.114Z,89.65
2017-11-18T06:16:31.550Z,69.65
2017-11-18T06:18:58.228Z,80.43
2017-11-18T06:21:25.028Z,70.90
2017-11-18T06:23:51.707Z,76.03
2017-11-18T06:26:18.386Z,83.97
2017-11-18T06:28:45.077Z,76.03
2017-11-18T06:31:11.755Z,76.97
2017-11-18T06:33:38.427Z,83.17
2017-11-18T06:36:05.105Z,81.67
2017-11-18T06:38:31.778Z,92.30
2017-11-18T06:40:58.445Z,78.40
2017-11-18T06:43:25.105Z,91.30
2017-11-18T06:45:51.756Z,82.90
2017-11-18T06:48:18.499Z,75.90
2017-11-18T06:50:45.185Z,71.80
2017-11-18T06:53:11.875Z,69.90
2017-11-18T06:55:39.268Z,75.93
2017-11-18T06:58:05.992Z,84.70
2017-11-18T07:00:32.707Z,71.60
2017-11-18T07:02:59.386Z,78.07
2017-11-18T07:05:27.545Z,65.90
2017-11-18T07:07:54.277Z,68.97
2017-11-18T07:10:21.920Z,64.37
2017-11-18T07:12:48.602Z,68.23
2017-11-18T07:15:16.920Z,59.30
2017-11-18T07:17:44.349Z,67.00
2017-11-18T07:20:11.080Z,61.10
2017-11-18T07:22:37.816Z,69.83
2017-11-18T07:25:04.484Z,69.97
2017-11-18T07:27:31.266Z,72.20
2017-11-18T07:29:57.962Z,80.70
2017-11-18T07:32:24.692Z,67.37
2017-11-18T07:34:51.404Z,65.80
2017-11-18T07:37:18.113Z,74.77
2017-11-18T07:39:44.793Z,79.20
2017-11-18T07:42:11.471Z,74.70
2017-11-18T07:44:38.139Z,73.93
2017-11-18T07:47:04.849Z,69.83
2017-11-18T07:49:31.560Z,62.60
2017-11-18T07:51:58.322Z,55.00
2017-11-18T07:54:25.049Z,58.53
2017-11-18T07:56:51.773Z,64.13
2017-11-18T07:59:19.240Z,66.70
2017-11-18T08:01:46.675Z,62.10
2017-11-18T08:04:13.323Z,58.50
2017-11-18T08:06:40.021Z,59.27
2017-11-18T08:09:06.679Z,60.10
2017-11-18T08:11:33.392Z,57.70
2017-11-18T08:14:00.090Z,46.37
2017-11-18T08:16:27.735Z,52.55
2017-11-18T08:18:54.453Z,48.80
2017-11-18T08:21:21.195Z,53.40
2017-11-18T08:23:47.892Z,57.03
2017-11-18T08:26:14.551Z,52.50
2017-11-18T08:28:41.226Z,48.97
2017-11-18T08:31:07.988Z,44.17
2017-11-18T08:33:34.638Z,49.10
2017-11-18T08:49:35.220Z,38.60
2017-11-18T08:52:02.635Z,36.77
2017-11-18T08:54:29.564Z,37.43
2017-11-18T08:56:57.060Z,36.90
2017-11-18T08:59:30.641Z,34.23
2017-11-18T09:01:57.605Z,32.90
2017-11-18T09:04:24.268Z,30.43
2017-11-18T09:06:51.916Z,26.70
2017-11-18T09:09:18.668Z,27.73
2017-11-18T09:11:45.361Z,30.77
2017-11-18T09:14:12.034Z,36.70
2017-11-18T09:16:39.673Z,27.70
2017-11-18T09:19:06.348Z,31.90
2017-11-18T09:21:33.116Z,29.10
2017-11-18T09:23:59.901Z,29.53
2017-11-18T09:26:26.615Z,29.70
2017-11-18T09:31:48.961Z,29.57
2017-11-18T09:34:21.004Z,30.80
2017-11-18T09:36:47.843Z,30.80
2017-11-18T09:39:14.572Z,31.63
2017-11-18T09:41:41.391Z,32.30
2017-11-18T09:44:08.128Z,34.47
2017-11-18T09:46:35.769Z,32.17
2017-11-18T09:49:02.482Z,36.93
2017-11-18T09:51:32.199Z,34.70
2017-11-18T09:54:01.078Z,33.63
2017-11-18T09:56:28.492Z,36.50
2017-11-18T09:58:55.733Z,38.30
2017-11-18T10:01:22.426Z,49.00
2017-11-18T10:03:49.961Z,38.53
2017-11-18T10:06:16.875Z,36.27
2017-11-18T10:08:43.565Z,36.47
2017-11-18T10:11:10.239Z,40.33
2017-11-18T10:13:37.020Z,37.93
2017-11-18T10:16:03.702Z,37.37
2017-11-18T10:18:30.400Z,35.83
2017-11-18T10:20:57.093Z,34.27
2017-11-18T10:23:24.518Z,32.07
2017-11-18T10:25:51.175Z,35.27
2017-11-18T10:28:17.910Z,35.03
2017-11-18T10:30:45.446Z,37.43
2017-11-18T10:33:12.402Z,32.70
2017-11-18T10:35:39.083Z,35.00
2017-11-18T10:38:05.781Z,37.27
2017-11-18T10:40:32.484Z,38.40
2017-11-18T10:42:59.910Z,35.90
2017-11-18T10:45:26.693Z,31.23
2017-11-18T10:47:54.139Z,33.00
2017-11-18T10:50:20.829Z,32.70
2017-11-18T10:52:47.529Z,32.10
2017-11-18T10:55:15.017Z,34.97
2017-11-18T10:57:41.752Z,31.33
2017-11-18T11:00:09.249Z,32.50
2017-11-18T11:02:35.965Z,36.37
2017-11-18T11:05:02.819Z,34.20
2017-11-18T11:10:01.758Z,35.17
2017-11-18T11:12:29.377Z,36.90
2017-11-18T11:14:56.815Z,38.60
2017-11-18T11:17:23.598Z,39.73
2017-11-18T11:19:51.100Z,36.67
2017-11-18T11:22:25.600Z,38.10
2017-11-18T11:24:52.284Z,35.40
2017-11-18T11:27:18.974Z,32.83
2017-11-18T11:29:45.677Z,35.70
2017-11-18T11:32:12.383Z,32.17
2017-11-18T11:34:39.202Z,38.37
2017-11-18T11:37:05.919Z,32.47
2017-11-18T11:39:32.591Z,28.27
2017-11-18T11:42:00.063Z,31.10
2017-11-18T11:44:26.863Z,30.13
2017-11-18T11:46:53.548Z,35.63
2017-11-18T11:49:20.313Z,35.17
2017-11-18T11:51:47.036Z,32.17
2017-11-18T11:54:13.783Z,28.33
2017-11-18T11:56:40.496Z,33.10
2017-11-18T11:59:07.211Z,25.50
2017-11-18T12:01:34.698Z,28.60
2017-11-18T12:04:02.058Z,26.90
2017-11-18T12:06:28.804Z,30.43
2017-11-18T12:08:55.481Z,26.13
2017-11-18T12:11:22.236Z,23.70
2017-11-18T12:13:49.006Z,18.87
2017-11-18T12:16:15.711Z,22.83
2017-11-18T12:18:42.419Z,25.20
2017-11-18T12:21:09.196Z,18.40
2017-11-18T12:23:35.901Z,20.10
2017-11-18T12:26:02.628Z,28.13
2017-11-18T12:41:38.550Z,22.33
2017-11-18T12:44:05.292Z,22.83
2017-11-18T12:46:32.157Z,23.00
2017-11-18T12:48:58.865Z,21.80
2017-11-18T12:51:26.360Z,22.93
2017-11-18T12:53:53.081Z,19.70
2017-11-18T12:56:20.558Z,20.97
2017-11-18T12:58:47.306Z,20.37
2017-11-18T13:01:14.083Z,21.40
2017-11-18T13:03:40.824Z,19.47
2017-11-18T13:06:07.512Z,22.50
2017-11-18T13:08:34.993Z,28.70
2017-11-18T13:11:01.697Z,26.00
2017-11-18T13:13:28.387Z,28.10
2017-11-18T13:15:55.096Z,24.87
2017-11-18T13:18:21.757Z,27.77
2017-11-18T13:20:48.458Z,24.67
2017-11-18T13:23:15.160Z,27.50
2017-11-18T13:25:41.896Z,31.80
2017-11-18T13:28:08.573Z,35.37
2017-11-18T13:30:35.315Z,31.63
2017-11-18T13:33:02.043Z,27.70
2017-11-18T13:35:28.763Z,26.20
2017-11-18T13:37:55.562Z,27.87
2017-11-18T13:40:22.335Z,23.63
2017-11-18T13:42:49.797Z,26.77
2017-11-18T13:45:17.231Z,27.47
2017-11-18T13:47:43.956Z,24.37
2017-11-18T13:50:10.649Z,22.90
2017-11-18T13:52:38.112Z,24.40
2017-11-18T13:55:05.526Z,19.17
2017-11-18T13:57:32.241Z,19.90
2017-11-18T13:59:58.931Z,16.33
2017-11-18T14:02:25.655Z,19.53
2017-11-18T14:04:52.384Z,19.67
2017-11-18T14:07:19.966Z,16.70
2017-11-18T14:09:46.742Z,18.00
2017-11-18T14:12:14.206Z,17.73
2017-11-18T14:14:40.967Z,17.90
2017-11-18T14:17:08.520Z,19.30
2017-11-18T14:19:35.965Z,19.27
2017-11-18T14:22:03.606Z,17.00
2017-11-18T14:24:30.372Z,20.93
2017-11-18T14:26:57.092Z,17.10
2017-11-18T14:29:23.829Z,18.00
2017-11-18T14:31:50.534Z,22.57
2017-11-18T14:34:18.692Z,22.40
2017-11-18T14:36:45.501Z,19.60
2017-11-18T14:39:12.259Z,23.37
2017-11-18T14:41:39.012Z,18.40
2017-11-18T14:44:05.725Z,23.20
2017-11-18T14:46:32.451Z,25.03
2017-11-18T14:48:59.163Z,24.53
2017-11-18T14:51:26.640Z,19.20
2017-11-18T14:53:53.418Z,20.67
2017-11-18T14:56:20.157Z,20.63
2017-11-18T14:58:46.913Z,25.80
2017-11-18T15:01:13.759Z,22.80
2017-11-18T15:03:40.558Z,23.07
2017-11-18T15:06:08.159Z,19.77
2017-11-18T15:08:35.004Z,21.70
2017-11-18T15:11:01.887Z,24.00
2017-11-18T15:13:29.447Z,23.20
2017-11-18T15:19:12.454Z,22.93
2017-11-18T15:21:45.187Z,23.70
2017-11-18T15:24:18.003Z,28.20
2017-11-18T15:26:51.571Z,25.77
2017-11-18T15:29:25.032Z,27.10
2017-11-18T15:31:57.731Z,25.23
2017-11-18T15:34:28.490Z,22.63
2017-11-18T15:36:57.103Z,23.87
2017-11-18T15:39:24.026Z,24.93
2017-11-18T15:41:51.742Z,31.43
2017-11-18T15:44:21.171Z,35.50
2017-11-18T16:00:15.670Z,38.67
2017-11-18T16:02:46.368Z,28.60
2017-11-18T16:05:13.943Z,33.55
2017-11-18T16:07:45.293Z,38.75
2017-11-18T16:10:13.713Z,35.35
2017-11-18T16:12:40.572Z,39.53
2017-11-18T16:15:07.354Z,37.70
2017-11-18T16:17:35.140Z,38.73
2017-11-18T16:20:02.673Z,35.60
2017-11-18T16:22:29.438Z,41.03
2017-11-18T16:24:56.276Z,36.83
2017-11-18T16:27:23.061Z,39.87
2017-11-18T16:29:49.834Z,38.60
2017-11-18T16:32:16.618Z,34.10
2017-11-18T16:34:43.388Z,32.73
2017-11-18T16:37:10.920Z,35.53
2017-11-18T16:39:37.716Z,32.87
2017-11-18T16:42:05.538Z,30.13
2017-11-18T16:44:32.321Z,34.40
2017-11-18T16:46:59.091Z,35.23
2017-11-18T16:49:26.739Z,33.30
2017-11-18T16:51:53.596Z,28.53
2017-11-18T16:54:22.493Z,30.97
2017-11-18T16:56:49.276Z,31.47
2017-11-18T16:59:16.151Z,30.90
2017-11-18T17:01:43.997Z,33.27
2017-11-18T17:04:10.892Z,33.10
2017-11-18T17:06:37.701Z,33.13
2017-11-18T17:09:04.526Z,31.83
2017-11-18T17:11:31.313Z,32.07
2017-11-18T17:13:58.863Z,30.07
2017-11-18T17:16:26.352Z,32.03
2017-11-18T17:18:53.150Z,28.83
2017-11-18T17:21:20.010Z,30.03
2017-11-18T17:23:47.206Z,32.07
2017-11-18T17:26:22.169Z,34.93
2017-11-18T17:28:50.471Z,34.60
2017-11-18T17:31:17.377Z,34.17
2017-11-18T17:33:44.297Z,32.97
2017-11-18T17:36:11.906Z,35.73
2017-11-18T17:38:38.782Z,34.47
2017-11-18T17:41:05.634Z,35.50
2017-11-18T17:43:32.526Z,29.63
2017-11-18T17:45:59.268Z,34.57
2017-11-18T17:48:26.144Z,33.77
2017-11-18T17:50:52.918Z,35.20
2017-11-18T17:53:20.471Z,29.83
2017-11-18T17:55:47.287Z,33.97
2017-11-18T17:58:14.075Z,34.08
2017-11-18T18:00:40.847Z,32.57
2017-11-18T18:03:08.038Z,32.27
2017-11-18T18:05:34.881Z,35.50
2017-11-18T18:08:01.695Z,35.03
2017-11-18T18:10:29.229Z,38.20
2017-11-18T18:12:56.122Z,33.90
2017-11-18T18:15:22.928Z,35.83
2017-11-18T18:17:49.757Z,34.53
2017-11-18T18:20:16.625Z,31.90
2017-11-18T18:22:44.167Z,30.20
2017-11-18T18:25:10.873Z,33.20
2017-11-18T18:27:38.554Z,33.17
2017-11-18T18:30:05.304Z,29.43
2017-11-18T18:32:32.004Z,34.43
2017-11-18T18:34:59.464Z,33.13
2017-11-18T18:37:26.935Z,34.13
2017-11-18T18:39:53.650Z,35.50
2017-11-18T18:42:20.399Z,36.10
2017-11-18T18:44:47.880Z,36.73
2017-11-18T18:47:14.624Z,38.43
2017-11-18T18:49:41.402Z,35.30
2017-11-18T18:52:08.197Z,36.00
2017-11-18T18:54:35.691Z,35.30
2017-11-18T18:57:02.427Z,41.05
2017-11-18T18:59:29.147Z,37.53
2017-11-18T19:01:56.602Z,41.30
2017-11-18T19:04:24.083Z,38.20
2017-11-18T19:06:50.828Z,39.55
2017-11-18T19:09:17.550Z,46.37
2017-11-18T19:11:45.008Z,42.67
2017-11-18T19:14:11.851Z,45.97
2017-11-18T19:16:38.631Z,45.08
2017-11-18T19:19:05.352Z,49.67
2017-11-18T19:21:32.080Z,49.95
2017-11-18T19:23:58.768Z,51.08
2017-11-18T19:26:25.480Z,50.65
2017-11-18T19:28:52.941Z,54.63
2017-11-18T19:31:19.696Z,43.83
2017-11-18T19:33:47.211Z,45.67
2017-11-18T19:36:13.989Z,44.03
2017-11-18T19:38:40.685Z,58.10
2017-11-18T19:41:07.447Z,72.57
2017-11-18T19:43:34.219Z,74.60
2017-11-18T19:46:01.676Z,62.08
2017-11-18T19:48:38.926Z,58.03
2017-11-18T19:51:06.704Z,57.90
2017-11-18T19:53:33.421Z,64.47
2017-11-18T19:56:00.161Z,55.28
2017-11-18T19:58:26.928Z,66.80
2017-11-18T20:00:53.715Z,73.18
2017-11-18T20:03:20.430Z,64.37
2017-11-18T20:05:47.319Z,58.83
2017-11-18T20:08:14.859Z,73.53
2017-11-18T20:10:41.626Z,84.72
2017-11-18T20:13:09.103Z,84.82
2017-11-18T20:15:35.917Z,56.37
2017-11-18T20:18:02.708Z,69.40
2017-11-18T20:20:29.517Z,59.10
2017-11-18T20:22:56.269Z,68.25
2017-11-18T20:25:23.746Z,64.10
2017-11-18T20:27:51.197Z,73.20
2017-11-18T20:30:18.791Z,73.18
2017-11-18T20:32:45.494Z,73.85
2017-11-18T20:35:12.584Z,78.95
2017-11-18T20:37:39.370Z,75.95
2017-11-18T20:40:06.122Z,82.18
2017-11-18T20:42:32.857Z,71.15
2017-11-18T20:44:59.534Z,66.15
2017-11-18T20:47:26.968Z,88.95
2017-11-18T20:49:53.774Z,75.18
2017-11-18T20:52:20.483Z,91.35
2017-11-18T20:54:47.997Z,79.07
2017-11-18T20:57:15.183Z,65.60
2017-11-18T20:59:41.904Z,98.50
2017-11-18T21:02:08.624Z,72.30
2017-11-18T21:04:35.379Z,73.37
2017-11-18T21:07:02.100Z,68.53
2017-11-18T21:09:28.747Z,60.63
2017-11-18T21:11:55.481Z,72.55
2017-11-18T21:14:22.192Z,65.07
2017-11-18T21:16:48.899Z,77.43
2017-11-18T21:19:15.697Z,71.70
2017-11-18T21:21:43.181Z,81.68
2017-11-18T21:24:09.860Z,92.37
2017-11-18T21:26:36.557Z,66.47
2017-11-18T21:29:04.005Z,86.47
2017-11-18T21:31:30.800Z,84.43
2017-11-18T21:33:57.606Z,121.65
2017-11-18T21:36:25.160Z,105.72
2017-11-18T21:38:52.619Z,81.95
2017-11-18T21:41:19.378Z,75.93
2017-11-18T21:43:46.836Z,82.90
2017-11-18T21:46:13.523Z,76.57
2017-11-18T21:48:40.248Z,97.35
2017-11-18T21:51:06.995Z,77.95
2017-11-18T21:53:33.990Z,88.30
2017-11-18T21:56:00.738Z,95.00
2017-11-18T21:58:27.445Z,124.20
2017-11-18T22:00:54.118Z,102.82
2017-11-18T22:03:20.812Z,85.03
2017-11-18T22:05:47.482Z,123.00
2017-11-18T22:08:14.221Z,73.20
2017-11-18T22:10:40.929Z,107.70
2017-11-18T22:13:07.613Z,92.97
2017-11-18T22:15:34.338Z,143.73
2017-11-18T22:18:01.016Z,86.07
2017-11-18T22:20:27.701Z,91.12
2017-11-18T22:22:54.409Z,85.55
2017-11-18T22:25:21.213Z,66.95
2017-11-18T22:27:47.992Z,111.62
2017-11-18T22:30:14.748Z,106.57
2017-11-18T22:32:41.489Z,89.25
2017-11-18T22:35:08.180Z,71.55
2017-11-18T22:37:34.876Z,83.68
2017-11-18T22:40:01.565Z,90.80
2017-11-18T22:42:28.223Z,86.43
2017-11-18T22:44:54.946Z,74.55
2017-11-18T22:47:21.616Z,68.07
2017-11-18T22:49:49.979Z,72.28
2017-11-18T22:52:16.703Z,306.87
2017-11-18T22:54:43.370Z,162.57
2017-11-18T22:57:10.087Z,400.30
2017-11-18T22:59:37.513Z,502.00
2017-11-18T23:02:04.237Z,219.35
2017-11-18T23:04:30.947Z,162.07
2017-11-18T23:06:57.776Z,293.05
2017-11-18T23:09:25.218Z,158.00
2017-11-18T23:11:51.912Z,274.35
2017-11-18T23:14:19.563Z,210.55
2017-11-18T23:16:46.226Z,229.98
2017-11-18T23:19:12.899Z,411.70
2017-11-18T23:21:39.588Z,917.92
2017-11-18T23:24:06.266Z,471.45
2017-11-18T23:26:32.953Z,500.52
2017-11-18T23:29:00.393Z,354.85
2017-11-18T23:31:27.130Z,364.83
2017-11-18T23:33:53.866Z,322.35
2017-11-18T23:36:20.587Z,331.73
2017-11-18T23:38:47.274Z,150.45
2017-11-18T23:41:13.984Z,223.27
2017-11-18T23:43:40.708Z,353.15
2017-11-18T23:46:07.444Z,112.65
2017-11-18T23:48:34.176Z,194.65
2017-11-18T23:51:00.858Z,566.58
2017-11-18T23:53:27.571Z,187.77
2017-11-18T23:55:54.325Z,229.98
2017-11-18T23:58:21.831Z,286.77
